sensor_id;sensor_type;location;lat;lon;timestamp;P1;durP1;ratioP1;P2;durP2;ratioP2
22768;SDS011;13001;51.968;5.918;2023-06-14T04:32:29;76.87;;;72.15;;
22768;SDS011;13001;51.968;5.918;2023-06-14T04:34:58;55.63;;;52.20;;
22768;SDS011;13001;51.968;5.918;2023-06-14T04:37:27;39.85;;;37.45;;
22768;SDS011;13001;51.968;5.918;2023-06-14T04:39:56;22.80;;;21.37;;
22768;SDS011;13001;51.968;5.918;2023-06-14T04:42:24;24.30;;;22.65;;
22768;SDS011;13001;51.968;5.918;2023-06-14T04:44:58;27.82;;;26.02;;
22768;SDS011;13001;51.968;5.918;2023-06-14T04:47:25;35.68;;;33.63;;
22768;SDS011;13001;51.968;5.918;2023-06-14T04:49:54;52.33;;;49.42;;
22768;SDS011;13001;51.968;5.918;2023-06-14T04:52:22;43.85;;;41.35;;
22768;SDS011;13001;51.968;5.918;2023-06-14T04:54:51;36.63;;;34.43;;
22768;SDS011;13001;51.968;5.918;2023-06-14T04:57:19;27.07;;;25.37;;
22768;SDS011;13001;51.968;5.918;2023-06-14T04:59:48;25.80;;;24.10;;
22768;SDS011;13001;51.968;5.918;2023-06-14T05:02:17;26.55;;;24.72;;
22768;SDS011;13001;51.968;5.918;2023-06-14T05:04:44;25.40;;;23.77;;
22768;SDS011;13001;51.968;5.918;2023-06-14T05:07:13;25.55;;;24.00;;
22768;SDS011;13001;51.968;5.918;2023-06-14T05:09:41;27.07;;;25.27;;
22768;SDS011;13001;51.968;5.918;2023-06-14T05:12:08;32.10;;;29.90;;
22768;SDS011;13001;51.968;5.918;2023-06-14T05:14:37;32.75;;;30.62;;
22768;SDS011;13001;51.968;5.918;2023-06-14T05:17:04;38.15;;;35.60;;
22768;SDS011;13001;51.968;5.918;2023-06-14T05:19:32;44.83;;;42.33;;
22768;SDS011;13001;51.968;5.918;2023-06-14T05:21:59;41.35;;;38.85;;
22768;SDS011;13001;51.968;5.918;2023-06-14T05:24:26;42.88;;;40.38;;
22768;SDS011;13001;51.968;5.918;2023-06-14T05:26:56;33.83;;;31.70;;
22768;SDS011;13001;51.968;5.918;2023-06-14T05:29:23;27.13;;;25.15;;
22768;SDS011;13001;51.968;5.918;2023-06-14T05:31:50;34.20;;;32.30;;
22768;SDS011;13001;51.968;5.918;2023-06-14T05:34:18;48.45;;;45.73;;
22768;SDS011;13001;51.968;5.918;2023-06-14T05:36:45;76.73;;;72.33;;
22768;SDS011;13001;51.968;5.918;2023-06-14T05:39:13;86.28;;;81.25;;
22768;SDS011;13001;51.968;5.918;2023-06-14T05:41:40;90.05;;;84.85;;
22768;SDS011;13001;51.968;5.918;2023-06-14T05:44:09;52.40;;;49.15;;
22768;SDS011;13001;51.968;5.918;2023-06-14T05:46:36;35.33;;;33.33;;
22768;SDS011;13001;51.968;5.918;2023-06-14T05:49:05;27.02;;;25.48;;
22768;SDS011;13001;51.968;5.918;2023-06-14T05:51:32;28.95;;;27.07;;
22768;SDS011;13001;51.968;5.918;2023-06-14T05:54:00;28.95;;;27.27;;
22768;SDS011;13001;51.968;5.918;2023-06-14T05:56:27;30.20;;;28.45;;
22768;SDS011;13001;51.968;5.918;2023-06-14T05:58:54;37.17;;;35.13;;
22768;SDS011;13001;51.968;5.918;2023-06-14T06:01:22;33.98;;;32.00;;
22768;SDS011;13001;51.968;5.918;2023-06-14T06:03:49;31.17;;;29.30;;
22768;SDS011;13001;51.968;5.918;2023-06-14T06:06:16;29.10;;;27.52;;
22768;SDS011;13001;51.968;5.918;2023-06-14T06:08:44;27.48;;;25.62;;
22768;SDS011;13001;51.968;5.918;2023-06-14T06:11:11;23.38;;;22.02;;
22768;SDS011;13001;51.968;5.918;2023-06-14T06:13:38;22.80;;;21.23;;
22768;SDS011;13001;51.968;5.918;2023-06-14T06:16:08;23.77;;;22.15;;
22768;SDS011;13001;51.968;5.918;2023-06-14T06:18:35;16.27;;;15.20;;
22768;SDS011;13001;51.968;5.918;2023-06-14T06:21:03;13.38;;;12.65;;
22768;SDS011;13001;51.968;5.918;2023-06-14T06:23:31;13.60;;;12.80;;
22768;SDS011;13001;51.968;5.918;2023-06-14T06:25:59;16.15;;;15.20;;
22768;SDS011;13001;51.968;5.918;2023-06-14T06:28:26;19.10;;;18.00;;
22768;SDS011;13001;51.968;5.918;2023-06-14T06:30:53;23.55;;;21.65;;
22768;SDS011;13001;51.968;5.918;2023-06-14T06:33:21;19.77;;;18.27;;
22768;SDS011;13001;51.968;5.918;2023-06-14T06:35:48;18.52;;;17.17;;
22768;SDS011;13001;51.968;5.918;2023-06-14T06:38:15;17.00;;;15.83;;
22768;SDS011;13001;51.968;5.918;2023-06-14T06:40:44;16.77;;;15.70;;
22768;SDS011;13001;51.968;5.918;2023-06-14T06:43:12;15.03;;;13.90;;
22768;SDS011;13001;51.968;5.918;2023-06-14T06:45:44;14.43;;;13.43;;
22768;SDS011;13001;51.968;5.918;2023-06-14T06:48:11;13.85;;;13.08;;
22768;SDS011;13001;51.968;5.918;2023-06-14T06:50:38;14.40;;;13.38;;
22768;SDS011;13001;51.968;5.918;2023-06-14T06:53:06;13.85;;;13.05;;
22768;SDS011;13001;51.968;5.918;2023-06-14T06:55:33;13.60;;;12.70;;
22768;SDS011;13001;51.968;5.918;2023-06-14T06:58:00;11.55;;;10.85;;
22768;SDS011;13001;51.968;5.918;2023-06-14T07:00:27;12.63;;;11.78;;
22768;SDS011;13001;51.968;5.918;2023-06-14T07:02:55;11.78;;;11.05;;
22768;SDS011;13001;51.968;5.918;2023-06-14T07:05:23;13.68;;;12.43;;
22768;SDS011;13001;51.968;5.918;2023-06-14T07:07:50;13.88;;;13.05;;
22768;SDS011;13001;51.968;5.918;2023-06-14T07:10:17;14.23;;;13.25;;
22768;SDS011;13001;51.968;5.918;2023-06-14T07:12:45;13.88;;;12.98;;
22768;SDS011;13001;51.968;5.918;2023-06-14T07:15:12;15.93;;;14.58;;
22768;SDS011;13001;51.968;5.918;2023-06-14T07:17:39;14.20;;;13.40;;
22768;SDS011;13001;51.968;5.918;2023-06-14T07:20:07;14.50;;;13.70;;
22768;SDS011;13001;51.968;5.918;2023-06-14T07:22:42;18.65;;;17.60;;
22768;SDS011;13001;51.968;5.918;2023-06-14T07:25:16;17.20;;;16.20;;
22768;SDS011;13001;51.968;5.918;2023-06-14T07:27:44;14.93;;;13.85;;
22768;SDS011;13001;51.968;5.918;2023-06-14T07:30:12;16.30;;;15.40;;
22768;SDS011;13001;51.968;5.918;2023-06-14T07:32:39;13.30;;;12.58;;
22768;SDS011;13001;51.968;5.918;2023-06-14T07:35:07;15.10;;;14.03;;
22768;SDS011;13001;51.968;5.918;2023-06-14T07:37:34;15.08;;;14.18;;
22768;SDS011;13001;51.968;5.918;2023-06-14T07:40:02;14.98;;;14.18;;
22768;SDS011;13001;51.968;5.918;2023-06-14T07:42:31;14.95;;;14.05;;
22768;SDS011;13001;51.968;5.918;2023-06-14T07:44:58;12.90;;;12.20;;
22768;SDS011;13001;51.968;5.918;2023-06-14T07:47:25;12.28;;;11.57;;
22768;SDS011;13001;51.968;5.918;2023-06-14T07:49:53;13.72;;;12.98;;
22768;SDS011;13001;51.968;5.918;2023-06-14T07:52:20;15.58;;;14.23;;
22768;SDS011;13001;51.968;5.918;2023-06-14T07:54:47;13.30;;;12.60;;
22768;SDS011;13001;51.968;5.918;2023-06-14T07:57:15;12.78;;;11.70;;
22768;SDS011;13001;51.968;5.918;2023-06-14T07:59:42;13.60;;;12.70;;
22768;SDS011;13001;51.968;5.918;2023-06-14T08:02:09;14.40;;;13.35;;
22768;SDS011;13001;51.968;5.918;2023-06-14T08:04:36;15.05;;;14.33;;
22768;SDS011;13001;51.968;5.918;2023-06-14T08:07:04;14.83;;;13.83;;
22768;SDS011;13001;51.968;5.918;2023-06-14T08:09:31;14.68;;;13.58;;
22768;SDS011;13001;51.968;5.918;2023-06-14T08:11:59;15.03;;;14.23;;
22768;SDS011;13001;51.968;5.918;2023-06-14T08:14:26;16.05;;;15.18;;
22768;SDS011;13001;51.968;5.918;2023-06-14T08:16:55;18.82;;;17.82;;
22768;SDS011;13001;51.968;5.918;2023-06-14T08:19:22;17.62;;;16.73;;
22768;SDS011;13001;51.968;5.918;2023-06-14T08:21:49;17.62;;;16.12;;
22768;SDS011;13001;51.968;5.918;2023-06-14T08:24:16;17.52;;;16.62;;
22768;SDS011;13001;51.968;5.918;2023-06-14T08:26:45;19.15;;;18.07;;
22768;SDS011;13001;51.968;5.918;2023-06-14T08:29:12;21.57;;;20.37;;
22768;SDS011;13001;51.968;5.918;2023-06-14T08:31:39;19.32;;;18.15;;
22768;SDS011;13001;51.968;5.918;2023-06-14T08:34:07;20.92;;;19.80;;
22768;SDS011;13001;51.968;5.918;2023-06-14T08:36:35;29.82;;;27.48;;
22768;SDS011;13001;51.968;5.918;2023-06-14T08:39:02;24.07;;;22.85;;
22768;SDS011;13001;51.968;5.918;2023-06-14T08:41:30;20.62;;;19.32;;
22768;SDS011;13001;51.968;5.918;2023-06-14T08:43:57;20.23;;;19.12;;
22768;SDS011;13001;51.968;5.918;2023-06-14T08:46:25;20.60;;;19.50;;
22768;SDS011;13001;51.968;5.918;2023-06-14T08:48:55;22.65;;;21.35;;
22768;SDS011;13001;51.968;5.918;2023-06-14T08:51:25;24.15;;;22.67;;
22768;SDS011;13001;51.968;5.918;2023-06-14T08:53:55;23.52;;;21.97;;
22768;SDS011;13001;51.968;5.918;2023-06-14T08:56:27;21.10;;;19.90;;
22768;SDS011;13001;51.968;5.918;2023-06-14T08:58:55;21.68;;;20.40;;
22768;SDS011;13001;51.968;5.918;2023-06-14T09:01:23;19.42;;;18.32;;
22768;SDS011;13001;51.968;5.918;2023-06-14T09:03:51;17.27;;;16.37;;
22768;SDS011;13001;51.968;5.918;2023-06-14T09:06:18;16.87;;;16.00;;
22768;SDS011;13001;51.968;5.918;2023-06-14T09:08:47;20.37;;;18.73;;
22768;SDS011;13001;51.968;5.918;2023-06-14T09:11:15;19.77;;;18.70;;
22768;SDS011;13001;51.968;5.918;2023-06-14T09:13:45;19.48;;;18.48;;
22768;SDS011;13001;51.968;5.918;2023-06-14T09:16:13;23.12;;;21.93;;
22768;SDS011;13001;51.968;5.918;2023-06-14T09:18:41;20.50;;;19.07;;
22768;SDS011;13001;51.968;5.918;2023-06-14T09:21:11;20.17;;;18.60;;
22768;SDS011;13001;51.968;5.918;2023-06-14T09:23:39;16.10;;;15.30;;
22768;SDS011;13001;51.968;5.918;2023-06-14T09:26:07;15.83;;;15.03;;
22768;SDS011;13001;51.968;5.918;2023-06-14T09:28:35;15.78;;;14.98;;
22768;SDS011;13001;51.968;5.918;2023-06-14T09:31:03;15.38;;;14.55;;
22768;SDS011;13001;51.968;5.918;2023-06-14T09:33:31;23.57;;;22.00;;
22768;SDS011;13001;51.968;5.918;2023-06-14T09:35:59;18.85;;;17.77;;
22768;SDS011;13001;51.968;5.918;2023-06-14T09:38:26;20.23;;;19.02;;
22768;SDS011;13001;51.968;5.918;2023-06-14T09:40:55;18.98;;;17.87;;
22768;SDS011;13001;51.968;5.918;2023-06-14T09:43:22;19.35;;;18.42;;
22768;SDS011;13001;51.968;5.918;2023-06-14T09:45:50;19.40;;;18.20;;
22768;SDS011;13001;51.968;5.918;2023-06-14T09:48:18;18.27;;;17.27;;
22768;SDS011;13001;51.968;5.918;2023-06-14T09:50:46;17.85;;;16.82;;
22768;SDS011;13001;51.968;5.918;2023-06-14T09:53:14;20.52;;;19.02;;
22768;SDS011;13001;51.968;5.918;2023-06-14T09:55:42;22.27;;;20.65;;
22768;SDS011;13001;51.968;5.918;2023-06-14T09:58:10;27.32;;;25.70;;
22768;SDS011;13001;51.968;5.918;2023-06-14T10:00:38;22.22;;;20.75;;
22768;SDS011;13001;51.968;5.918;2023-06-14T10:03:13;23.38;;;21.85;;
22768;SDS011;13001;51.968;5.918;2023-06-14T10:05:41;26.30;;;24.80;;
22768;SDS011;13001;51.968;5.918;2023-06-14T10:08:10;28.02;;;26.50;;
22768;SDS011;13001;51.968;5.918;2023-06-14T10:10:40;25.65;;;24.25;;
22768;SDS011;13001;51.968;5.918;2023-06-14T10:13:07;23.15;;;21.95;;
22768;SDS011;13001;51.968;5.918;2023-06-14T10:15:38;19.17;;;18.15;;
22768;SDS011;13001;51.968;5.918;2023-06-14T10:18:10;14.03;;;13.32;;
22768;SDS011;13001;51.968;5.918;2023-06-14T10:20:41;13.22;;;12.33;;
22768;SDS011;13001;51.968;5.918;2023-06-14T10:23:13;16.77;;;15.70;;
